Πλησιέστερες Αναφορές METAR

 

LGTS - Thessaloniki/Makedonia-Elev 7m
Distance from station: Ν 13km
Ενημερώθηκε: 27/05/2020 06:20
Μερικώς νεφελώδης
Μερικώς νεφελώδης
 Ανεμος από varies
Ανεμος: varies 4 km/h
Θερμοκρασία: 14°C
Σημείο Δρόσου: 9°C
Υγρασία: 72%
Βαρόμετρο: 1017 hPa
Clouds: Μερικώς νεφελώδης
Visibility: 10 km
Cloud details: Μερικώς νεφελώδης 762 m
2020/05/27 03:20 LGTS 270320Z VRB02KT 9999 SCT025 14/09 Q1017 NOSIG
LGAV - Athens/Elef. Venizelos-Elev 94m
Distance from station: ΝΝΑ 312km
Ενημερώθηκε: 27/05/2020 06:20
Μερικώς νεφελώδης
Μερικώς νεφελώδης
 Ανεμος από ΒΔ
Ανεμος: ΒΔ 15 km/h
Θερμοκρασία: 13°C
Σημείο Δρόσου: 7°C
Υγρασία: 67%
Βαρόμετρο: 1016 hPa
Clouds: Μερικώς νεφελώδης
Visibility: 10 km
Cloud details: Μερικώς νεφελώδης 610 m
2020/05/27 03:20 LGAV 270320Z 32008KT 9999 SCT020 13/07 Q1016 NOSIG
 
LGAL - Alexandroupolis-Elev 3m
Distance from station: Α 251km
Ενημερώθηκε: 26/05/2020 21:50
Μη Ενημερωμένο!
Μερικώς νεφελώδης
Μερικώς νεφελώδης
 Ανεμος από ΒΑ
Ανεμος: ΒΑ 13 km/h
Θερμοκρασία: 14°C
Σημείο Δρόσου: 9°C
Υγρασία: 72%
Βαρόμετρο: 1017 hPa
Clouds: Μερικώς νεφελώδης
Visibility: 10 km
Cloud details: Μερικώς νεφελώδης 610 m
2020/05/26 18:50 LGAL 261850Z 05007KT 9999 SCT020 14/09 Q1017
LGKV - Kavala/Crysoupolis-Elev 5m
Distance from station: ΑΒΑ 144km
Ενημερώθηκε: 26/05/2020 20:50
Μη Ενημερωμένο!
Few Clouds
Few Clouds
 Ανεμος από calm
Ανεμος: Απνοια
Θερμοκρασία: 15°C
Σημείο Δρόσου: 12°C
Υγρασία: 82%
Βαρόμετρο: 1017 hPa
Clouds: Few Clouds
Visibility: 10 km
Cloud details: Few Clouds 610 m
2020/05/26 17:50 LGKV 261750Z 00000KT 9999 FEW020 15/12 Q1017
 
LGSK - Skiathos Island-Elev 15m
Distance from station: ΝΝΑ 168km
Ενημερώθηκε: 26/05/2020 12:50
Μη Ενημερωμένο!
Μερικώς νεφελώδης
Μερικώς νεφελώδης
 Ανεμος από ΒΒΑ
Ανεμος: ΒΒΑ 9 km/h
Θερμοκρασία: 19°C
Σημείο Δρόσου: 14°C
Υγρασία: 73%
Βαρόμετρο: 1018 hPa
Clouds: Μερικώς νεφελώδης
Visibility: 8 km
Cloud details: Few Clouds 610 m
Μερικώς νεφελώδης 1067 m
2020/05/26 09:50 LGSK 260950Z 02005KT 8000 FEW020TCU SCT035 19/14 Q1018
LGLM - Limnos Island-Elev 5m
Distance from station: ΑΝΑ 210km
Ενημερώθηκε: 27/05/2020 06:20
Μερικώς νεφελώδης
Μερικώς νεφελώδης
 Ανεμος από ΒΑ
Ανεμος: ΒΑ 26 km/h, Ριπή: 44 km/h
Θερμοκρασία: 15°C
Σημείο Δρόσου: 11°C
Υγρασία: 77%
Βαρόμετρο: 1016 hPa
Clouds: Μερικώς νεφελώδης
Visibility: 10 km
Cloud details: Μερικώς νεφελώδης 457 m
2020/05/27 03:20 LGLM 270320Z 05014G24KT 9999 SCT015 15/11 Q1016
 
LGMT - Mitilini Island-Elev 17m
Distance from station: ΑΝΑ 358km
Ενημερώθηκε: 27/05/2020 06:20
Ασθενής βροχή, Σχεδόν νεφελώδης
Ασθενής βροχή, Σχεδόν νεφελώδης
 Ανεμος από calm
Ανεμος: Απνοια
Θερμοκρασία: 15°C
Σημείο Δρόσου: 13°C
Υγρασία: 88%
Βαρόμετρο: 1014 hPa
Συνθήκες: Ασθενής βροχή
Clouds: Σχεδόν νεφελώδης
Visibility: 9 km
Cloud details: Few Clouds 427 m
Few Clouds 549 m
Σχεδόν νεφελώδης 914 m
2020/05/27 03:20 LGMT 270320Z 00000KT 9000 -RA FEW014 FEW018TCU BKN030 15/13 Q1014
LGSY - Skiros Island-Elev 15m
Distance from station: ΝΑ 227km
Ενημερώθηκε: 27/05/2020 05:50
Thunderstorm rain, Συννεφιά
Thunderstorm rain, Συννεφιά
 Ανεμος από ΝΔ
Ανεμος: ΝΔ 22 km/h, Ριπή: 43 km/h
Θερμοκρασία: 13°C
Σημείο Δρόσου: 11°C
Υγρασία: 88%
Βαρόμετρο: 1016 hPa
Συνθήκες: Thunderstorm Rain
Clouds: Συννεφιά
Visibility: 3 km
Cloud details: Μερικώς νεφελώδης 91 m
Few Clouds 457 m
Συννεφιά 610 m
2020/05/27 02:50 LGSY 270250Z 22012G23KT 3000 TSRA SCT003 FEW015CB OVC020 13/11 Q1016 RMK CB OVER STATION YLO
 
LGKZ - Kozani-Elev 628m
Distance from station: ΔΝΔ 102km
Ενημερώθηκε: 27/05/2020 06:20

 Ανεμος από Β
Ανεμος: Β 13 km/h
Θερμοκρασία: 8°C
Wind Chill: 6°C
Σημείο Δρόσου: 6°C
Υγρασία: 87%
Βαρόμετρο: 1019 hPa
2020/05/27 03:20 LGKZ 270320Z AUTO 01007KT 320V040 //// // ////// 08/06 Q1019 RE//
LGIO - Ioannina-Elev 476m
Distance from station: ΔΝΔ 209km
Ενημερώθηκε: 27/05/2020 06:20

 Ανεμος από varies
Ανεμος: varies 6 km/h
Θερμοκρασία: 10°C
Σημείο Δρόσου: 6°C
Υγρασία: 76%
Βαρόμετρο: 1018 hPa
2020/05/27 03:20 LGIO 270320Z AUTO VRB03KT //// // ////// 10/06 Q1018 RE//
 
LGZA - Zakinthos-Elev 3m
Distance from station: ΝΝΔ 367km
Ενημερώθηκε: 26/05/2020 20:50
Μη Ενημερωμένο!
Few Clouds
Few Clouds
 Ανεμος από ΔΒΔ
Ανεμος: ΔΒΔ 13 km/h
Θερμοκρασία: 21°C
Σημείο Δρόσου: 13°C
Υγρασία: 60%
Βαρόμετρο: 1017 hPa
Clouds: Few Clouds
Visibility: 10 km
Cloud details: Few Clouds 610 m
2020/05/26 17:50 LGZA 261750Z 30007KT 9999 FEW020 21/13 Q1017
LGKR - Corfu Island-Elev 2m
Distance from station: ΔΝΔ 282km
Ενημερώθηκε: 27/05/2020 06:20
Few Clouds
Few Clouds
 Ανεμος από Δ
Ανεμος: Δ 6 km/h
Θερμοκρασία: 12°C
Σημείο Δρόσου: 5°C
Υγρασία: 63%
Βαρόμετρο: 1018 hPa
Clouds: Few Clouds
Visibility: 10 km
Cloud details: Few Clouds 914 m
2020/05/27 03:20 LGKR 270320Z 26003KT 9999 FEW030 12/05 Q1018 NOSIG
 
LGSO - Syros Island-Elev 72m
Distance from station: ΝΝΑ 397km
Ενημερώθηκε: 27/05/2020 06:20

 Ανεμος από ΒΒΔ
Ανεμος: ΒΒΔ 13 km/h
Θερμοκρασία: 15°C
Σημείο Δρόσου: 10°C
Υγρασία: 72%
Βαρόμετρο: 1015 hPa
2020/05/27 03:20 LGSO 270320Z AUTO 33007KT //// // ////// 15/10 Q1015 RE//
LGMK - Mikonos Island-Elev 123m
Distance from station: ΝΝΑ 412km
Ενημερώθηκε: 26/05/2020 13:50
Μη Ενημερωμένο!
Μερικώς νεφελώδης
Μερικώς νεφελώδης
 Ανεμος από ΒΒΔ
Ανεμος: ΒΒΔ 24 km/h
Θερμοκρασία: 18°C
Σημείο Δρόσου: 11°C
Υγρασία: 64%
Βαρόμετρο: 1016 hPa
Clouds: Μερικώς νεφελώδης
Visibility: 10 km
Cloud details: Few Clouds 457 m
Μερικώς νεφελώδης 762 m
2020/05/26 10:50 LGMK 261050Z 34013KT 9999 FEW015 SCT025 18/11 Q1016
 
LGSR - Santorini Island-Elev 40m
Distance from station: ΝΝΑ 520km
Ενημερώθηκε: 27/05/2020 02:50
Μη Ενημερωμένο!
Few Clouds
Few Clouds
 Ανεμος από Β
Ανεμος: Β 15 km/h
Θερμοκρασία: 18°C
Σημείο Δρόσου: 13°C
Υγρασία: 73%
Βαρόμετρο: 1015 hPa
Clouds: Few Clouds
Visibility: 10 km
Cloud details: Few Clouds 762 m
2020/05/26 23:50 LGSR 262350Z 36008KT 9999 FEW025 18/13 Q1015
LGKL - Kalamata-Elev 8m
Distance from station: Ν 405km
Ενημερώθηκε: 27/05/2020 06:20
Μερικώς νεφελώδης
Μερικώς νεφελώδης
 Ανεμος από Β
Ανεμος: Β 6 km/h
Θερμοκρασία: 11°C
Σημείο Δρόσου: 11°C
Υγρασία: 100%
Βαρόμετρο: 1016 hPa
Clouds: Μερικώς νεφελώδης
Visibility: 10 km
Cloud details: Μερικώς νεφελώδης 914 m
2020/05/27 03:20 LGKL 270320Z 36003KT 9999 SCT030 11/11 Q1016
 
LGIR - Iraklion/Crete-Elev 5m
Distance from station: ΝΝΑ 622km
Ενημερώθηκε: 27/05/2020 06:20
Σχεδόν νεφελώδης
Σχεδόν νεφελώδης
 Ανεμος από varies
Ανεμος: varies 6 km/h
Θερμοκρασία: 18°C
Σημείο Δρόσου: 16°C
Υγρασία: 88%
Βαρόμετρο: 1015 hPa
Clouds: Σχεδόν νεφελώδης
Visibility: 10 km
Cloud details: Few Clouds 610 m
Σχεδόν νεφελώδης 762 m
2020/05/27 03:20 LGIR 270320Z VRB03KT 9999 FEW020 BKN025 18/16 Q1015 NOSIG
LGRP - Rhodes-Elev 5m
Distance from station: ΝΑ 649km
Ενημερώθηκε: 27/05/2020 06:20
Μερικώς νεφελώδης
Μερικώς νεφελώδης
 Ανεμος από ΝΔ
Ανεμος: ΝΔ 7 km/h
Θερμοκρασία: 18°C
Σημείο Δρόσου: 15°C
Υγρασία: 83%
Βαρόμετρο: 1013 hPa
Clouds: Μερικώς νεφελώδης
Visibility: 10 km
Cloud details: Μερικώς νεφελώδης 610 m
2020/05/27 03:20 LGRP 270320Z 23004KT 9999 SCT020 18/15 Q1013 NOSIG
 
LWOH - Ohrid/FYROM-Elev 761m
Distance from station: ΔΒΔ 188km
Ενημερώθηκε: 26/05/2020 16:30
Μη Ενημερωμένο!
Σχεδόν νεφελώδης
Σχεδόν νεφελώδης
 Ανεμος από ΒΔ
Ανεμος: ΒΔ 11 km/h
Θερμοκρασία: 13°C
Σημείο Δρόσου: 5°C
Υγρασία: 59%
Βαρόμετρο: 1020 hPa
Clouds: Σχεδόν νεφελώδης
Visibility: 10 km
Cloud details: Μερικώς νεφελώδης 1219 m
Σχεδόν νεφελώδης 2438 m
2020/05/26 13:30 LWOH 261330Z 31006KT 270V020 9999 SCT040 BKN080 13/05 Q1020
LBSF - Sofia/Bulgaria-Elev 595m
Distance from station: Β 227km
Ενημερώθηκε: 27/05/2020 06:30
Συννεφιά
Συννεφιά
 Ανεμος από Δ
Ανεμος: Δ 13 km/h
Θερμοκρασία: 9°C
Wind Chill: 7°C
Σημείο Δρόσου: 8°C
Υγρασία: 94%
Βαρόμετρο: 1022 hPa
Clouds: Συννεφιά
Visibility: 10 km
Cloud details: Σχεδόν νεφελώδης 1006 m
Συννεφιά 1280 m
2020/05/27 03:30 LBSF 270330Z 28007KT 9999 BKN033 OVC042 09/08 Q1022 NOSIG
Σημερινά ρεκόρ Μετεωρολογικού Σταθμού
Δεν έχει σημειωθεί νέο ρεκόρ μέχρι τις 06:32 σήμερα - 27/5/2020